Terminal Aerodrome Forecast
Issued by NWS Austin/San Antonio, TX

Home | Current Version | Previous Version | Text Only | Print | Product List | Glossary On
Versions: 1 2 3 4 5 6 7 8 9 10 11 12 13 14 15 16 17 18
000
FTUS44 KEWX 022339
TAFSAT
TAF
KSAT 022339Z 0300/0406 12008KT P6SM FEW060
     FM030700 13005KT P6SM BKN012
     FM031100 13004KT P6SM BKN008
     FM031400 14006KT P6SM BKN015
     FM031600 14006KT P6SM SCT050=

USA.gov is the U.S. government's official web portal to all federal, state and local government web resources and services.